sensor_id;sensor_type;location;lat;lon;timestamp;P1;durP1;ratioP1;P2;durP2;ratioP2
7989;SDS011;4040;42.848;23.034;2022-07-01T00:01:36;5.22;;;4.47;;
7989;SDS011;4040;42.848;23.034;2022-07-01T00:07:44;6.68;;;4.95;;
7989;SDS011;4040;42.848;23.034;2022-07-01T00:13:35;7.50;;;5.20;;
7989;SDS011;4040;42.848;23.034;2022-07-01T00:19:23;5.75;;;4.68;;
7989;SDS011;4040;42.848;23.034;2022-07-01T00:25:12;6.18;;;4.80;;
7989;SDS011;4040;42.848;23.034;2022-07-01T00:31:03;6.95;;;4.70;;
7989;SDS011;4040;42.848;23.034;2022-07-01T00:36:51;8.13;;;4.70;;
7989;SDS011;4040;42.848;23.034;2022-07-01T00:42:40;5.30;;;4.82;;
7989;SDS011;4040;42.848;23.034;2022-07-01T00:48:32;7.00;;;5.22;;
7989;SDS011;4040;42.848;23.034;2022-07-01T00:54:22;5.20;;;4.70;;
7989;SDS011;4040;42.848;23.034;2022-07-01T01:00:13;6.60;;;5.47;;
7989;SDS011;4040;42.848;23.034;2022-07-01T01:10:08;6.53;;;5.65;;
7989;SDS011;4040;42.848;23.034;2022-07-01T01:16:00;7.03;;;5.88;;
7989;SDS011;4040;42.848;23.034;2022-07-01T01:21:50;10.02;;;5.68;;
7989;SDS011;4040;42.848;23.034;2022-07-01T01:27:38;6.38;;;5.55;;
7989;SDS011;4040;42.848;23.034;2022-07-01T01:33:27;9.82;;;6.55;;
7989;SDS011;4040;42.848;23.034;2022-07-01T01:39:17;8.10;;;7.03;;
7989;SDS011;4040;42.848;23.034;2022-07-01T01:45:06;7.65;;;6.85;;
7989;SDS011;4040;42.848;23.034;2022-07-01T01:50:56;8.30;;;6.65;;
7989;SDS011;4040;42.848;23.034;2022-07-01T01:56:46;9.25;;;6.82;;
7989;SDS011;4040;42.848;23.034;2022-07-01T02:02:35;6.88;;;6.18;;
7989;SDS011;4040;42.848;23.034;2022-07-01T02:12:47;8.23;;;6.25;;
7989;SDS011;4040;42.848;23.034;2022-07-01T02:18:35;9.63;;;6.47;;
7989;SDS011;4040;42.848;23.034;2022-07-01T02:24:24;7.90;;;6.50;;
7989;SDS011;4040;42.848;23.034;2022-07-01T02:30:16;8.10;;;7.30;;
7989;SDS011;4040;42.848;23.034;2022-07-01T02:36:04;7.57;;;6.70;;
7989;SDS011;4040;42.848;23.034;2022-07-01T02:41:53;8.60;;;6.68;;
7989;SDS011;4040;42.848;23.034;2022-07-01T02:48:00;11.73;;;6.20;;
7989;SDS011;4040;42.848;23.034;2022-07-01T02:53:49;9.35;;;6.28;;
7989;SDS011;4040;42.848;23.034;2022-07-01T03:05:46;8.20;;;6.85;;
7989;SDS011;4040;42.848;23.034;2022-07-01T03:15:57;8.30;;;6.63;;
7989;SDS011;4040;42.848;23.034;2022-07-01T03:21:47;7.93;;;7.13;;
7989;SDS011;4040;42.848;23.034;2022-07-01T03:27:36;9.55;;;7.30;;
7989;SDS011;4040;42.848;23.034;2022-07-01T03:33:27;7.95;;;6.82;;
7989;SDS011;4040;42.848;23.034;2022-07-01T03:39:18;6.95;;;6.25;;
7989;SDS011;4040;42.848;23.034;2022-07-01T03:45:07;12.98;;;7.22;;
7989;SDS011;4040;42.848;23.034;2022-07-01T03:50:56;12.32;;;7.55;;
7989;SDS011;4040;42.848;23.034;2022-07-01T03:56:46;9.68;;;7.50;;
7989;SDS011;4040;42.848;23.034;2022-07-01T04:02:35;12.10;;;8.02;;
7989;SDS011;4040;42.848;23.034;2022-07-01T04:08:24;11.20;;;8.15;;
7989;SDS011;4040;42.848;23.034;2022-07-01T04:18:36;10.43;;;7.35;;
7989;SDS011;4040;42.848;23.034;2022-07-01T04:24:26;9.00;;;7.32;;
7989;SDS011;4040;42.848;23.034;2022-07-01T04:30:15;7.93;;;6.50;;
7989;SDS011;4040;42.848;23.034;2022-07-01T04:36:05;9.70;;;6.80;;
7989;SDS011;4040;42.848;23.034;2022-07-01T04:41:54;12.63;;;6.43;;
7989;SDS011;4040;42.848;23.034;2022-07-01T04:47:49;7.03;;;5.90;;
7989;SDS011;4040;42.848;23.034;2022-07-01T04:53:39;7.07;;;5.60;;
7989;SDS011;4040;42.848;23.034;2022-07-01T04:59:28;8.90;;;6.05;;
7989;SDS011;4040;42.848;23.034;2022-07-01T05:05:16;5.57;;;4.97;;
7989;SDS011;4040;42.848;23.034;2022-07-01T05:11:07;7.43;;;5.57;;
7989;SDS011;4040;42.848;23.034;2022-07-01T05:21:17;8.55;;;5.70;;
7989;SDS011;4040;42.848;23.034;2022-07-01T05:27:24;5.95;;;4.90;;
7989;SDS011;4040;42.848;23.034;2022-07-01T05:33:13;8.10;;;4.97;;
7989;SDS011;4040;42.848;23.034;2022-07-01T05:39:02;7.03;;;4.68;;
7989;SDS011;4040;42.848;23.034;2022-07-01T05:44:53;4.80;;;4.18;;
7989;SDS011;4040;42.848;23.034;2022-07-01T05:50:41;6.22;;;3.80;;
7989;SDS011;4040;42.848;23.034;2022-07-01T05:56:31;5.35;;;4.10;;
7989;SDS011;4040;42.848;23.034;2022-07-01T06:02:22;6.05;;;4.40;;
7989;SDS011;4040;42.848;23.034;2022-07-01T06:08:10;5.72;;;3.88;;
7989;SDS011;4040;42.848;23.034;2022-07-01T06:13:59;7.35;;;4.10;;
7989;SDS011;4040;42.848;23.034;2022-07-01T06:24:11;6.47;;;3.67;;
7989;SDS011;4040;42.848;23.034;2022-07-01T06:30:01;7.72;;;3.70;;
7989;SDS011;4040;42.848;23.034;2022-07-01T06:35:49;4.60;;;2.88;;
7989;SDS011;4040;42.848;23.034;2022-07-01T06:41:40;3.55;;;3.25;;
7989;SDS011;4040;42.848;23.034;2022-07-01T06:47:28;3.00;;;2.53;;
7989;SDS011;4040;42.848;23.034;2022-07-01T06:53:17;6.82;;;2.40;;
7989;SDS011;4040;42.848;23.034;2022-07-01T06:59:07;9.10;;;2.90;;
7989;SDS011;4040;42.848;23.034;2022-07-01T07:04:56;4.82;;;2.72;;
7989;SDS011;4040;42.848;23.034;2022-07-01T07:10:45;5.30;;;3.70;;
7989;SDS011;4040;42.848;23.034;2022-07-01T07:16:36;6.20;;;3.08;;
7989;SDS011;4040;42.848;23.034;2022-07-01T07:26:46;3.45;;;2.22;;
7989;SDS011;4040;42.848;23.034;2022-07-01T07:32:36;3.17;;;2.30;;
7989;SDS011;4040;42.848;23.034;2022-07-01T07:38:25;3.78;;;2.50;;
7989;SDS011;4040;42.848;23.034;2022-07-01T07:44:14;3.33;;;2.60;;
7989;SDS011;4040;42.848;23.034;2022-07-01T07:50:04;5.32;;;2.70;;
7989;SDS011;4040;42.848;23.034;2022-07-01T07:55:54;5.15;;;2.95;;
7989;SDS011;4040;42.848;23.034;2022-07-01T08:01:42;4.85;;;3.35;;
7989;SDS011;4040;42.848;23.034;2022-07-01T08:07:35;5.38;;;3.58;;
7989;SDS011;4040;42.848;23.034;2022-07-01T08:13:24;4.25;;;3.13;;
7989;SDS011;4040;42.848;23.034;2022-07-01T08:19:13;5.32;;;3.40;;
7989;SDS011;4040;42.848;23.034;2022-07-01T08:29:25;4.97;;;3.40;;
7989;SDS011;4040;42.848;23.034;2022-07-01T08:35:14;3.65;;;3.35;;
7989;SDS011;4040;42.848;23.034;2022-07-01T08:41:03;5.25;;;3.50;;
7989;SDS011;4040;42.848;23.034;2022-07-01T08:46:53;4.25;;;3.80;;
7989;SDS011;4040;42.848;23.034;2022-07-01T08:52:42;5.47;;;4.53;;
7989;SDS011;4040;42.848;23.034;2022-07-01T08:58:31;4.30;;;3.88;;
7989;SDS011;4040;42.848;23.034;2022-07-01T09:04:21;7.95;;;4.20;;
7989;SDS011;4040;42.848;23.034;2022-07-01T09:10:14;5.97;;;3.50;;
7989;SDS011;4040;42.848;23.034;2022-07-01T09:16:10;5.47;;;3.53;;
7989;SDS011;4040;42.848;23.034;2022-07-01T09:22:01;7.32;;;3.72;;
7989;SDS011;4040;42.848;23.034;2022-07-01T09:32:14;5.70;;;4.03;;
7989;SDS011;4040;42.848;23.034;2022-07-01T09:38:07;16.27;;;3.95;;
7989;SDS011;4040;42.848;23.034;2022-07-01T09:44:03;3.58;;;2.70;;
7989;SDS011;4040;42.848;23.034;2022-07-01T09:49:53;3.42;;;2.90;;
7989;SDS011;4040;42.848;23.034;2022-07-01T09:55:43;5.32;;;3.05;;
7989;SDS011;4040;42.848;23.034;2022-07-01T10:01:32;2.90;;;2.38;;
7989;SDS011;4040;42.848;23.034;2022-07-01T10:07:26;2.97;;;2.67;;
7989;SDS011;4040;42.848;23.034;2022-07-01T10:13:26;5.68;;;2.92;;
7989;SDS011;4040;42.848;23.034;2022-07-01T10:19:26;4.55;;;3.10;;
7989;SDS011;4040;42.848;23.034;2022-07-01T10:25:29;3.20;;;2.90;;
7989;SDS011;4040;42.848;23.034;2022-07-01T10:31:37;2.83;;;2.63;;
7989;SDS011;4040;42.848;23.034;2022-07-01T10:37:26;4.82;;;3.25;;
7989;SDS011;4040;42.848;23.034;2022-07-01T10:43:15;3.92;;;2.85;;
7989;SDS011;4040;42.848;23.034;2022-07-01T10:49:07;3.10;;;2.80;;
7989;SDS011;4040;42.848;23.034;2022-07-01T10:54:56;3.40;;;2.67;;
7989;SDS011;4040;42.848;23.034;2022-07-01T11:00:47;2.95;;;2.63;;
7989;SDS011;4040;42.848;23.034;2022-07-01T11:06:38;3.03;;;2.72;;
7989;SDS011;4040;42.848;23.034;2022-07-01T11:12:27;3.15;;;2.80;;
7989;SDS011;4040;42.848;23.034;2022-07-01T11:18:17;3.30;;;2.80;;
7989;SDS011;4040;42.848;23.034;2022-07-01T11:24:09;6.05;;;3.13;;
7989;SDS011;4040;42.848;23.034;2022-07-01T11:34:10;4.20;;;3.28;;
7989;SDS011;4040;42.848;23.034;2022-07-01T11:40:07;3.40;;;3.10;;
7989;SDS011;4040;42.848;23.034;2022-07-01T11:45:57;3.20;;;3.00;;
7989;SDS011;4040;42.848;23.034;2022-07-01T11:51:53;3.22;;;2.92;;
7989;SDS011;4040;42.848;23.034;2022-07-01T11:57:44;3.47;;;3.17;;
7989;SDS011;4040;42.848;23.034;2022-07-01T12:03:33;4.30;;;3.30;;
7989;SDS011;4040;42.848;23.034;2022-07-01T12:09:23;3.60;;;2.90;;
7989;SDS011;4040;42.848;23.034;2022-07-01T12:15:14;3.35;;;3.05;;
7989;SDS011;4040;42.848;23.034;2022-07-01T12:21:03;3.45;;;3.15;;
7989;SDS011;4040;42.848;23.034;2022-07-01T12:26:53;3.30;;;2.80;;
7989;SDS011;4040;42.848;23.034;2022-07-01T12:37:13;4.38;;;3.15;;
7989;SDS011;4040;42.848;23.034;2022-07-01T12:43:03;3.70;;;3.28;;
7989;SDS011;4040;42.848;23.034;2022-07-01T12:48:53;3.20;;;2.90;;
7989;SDS011;4040;42.848;23.034;2022-07-01T12:54:44;3.10;;;2.90;;
7989;SDS011;4040;42.848;23.034;2022-07-01T13:00:33;3.25;;;3.05;;
7989;SDS011;4040;42.848;23.034;2022-07-01T13:06:22;3.05;;;2.75;;
7989;SDS011;4040;42.848;23.034;2022-07-01T13:12:12;3.13;;;2.78;;
7989;SDS011;4040;42.848;23.034;2022-07-01T13:18:01;2.70;;;2.50;;
7989;SDS011;4040;42.848;23.034;2022-07-01T13:23:50;2.17;;;2.05;;
7989;SDS011;4040;42.848;23.034;2022-07-01T13:29:40;3.63;;;3.00;;
7989;SDS011;4040;42.848;23.034;2022-07-01T13:39:50;3.55;;;3.25;;
7989;SDS011;4040;42.848;23.034;2022-07-01T13:45:41;3.17;;;2.88;;
7989;SDS011;4040;42.848;23.034;2022-07-01T13:51:29;3.47;;;3.17;;
7989;SDS011;4040;42.848;23.034;2022-07-01T13:57:18;3.55;;;3.22;;
7989;SDS011;4040;42.848;23.034;2022-07-01T14:03:08;3.42;;;3.13;;
7989;SDS011;4040;42.848;23.034;2022-07-01T14:08:58;4.60;;;3.72;;
7989;SDS011;4040;42.848;23.034;2022-07-01T14:14:47;5.60;;;3.45;;
7989;SDS011;4040;42.848;23.034;2022-07-01T14:20:37;5.25;;;3.70;;
7989;SDS011;4040;42.848;23.034;2022-07-01T14:26:26;4.53;;;3.88;;
7989;SDS011;4040;42.848;23.034;2022-07-01T14:32:14;5.20;;;4.20;;
7989;SDS011;4040;42.848;23.034;2022-07-01T14:42:27;8.43;;;4.13;;
7989;SDS011;4040;42.848;23.034;2022-07-01T14:48:16;4.68;;;3.95;;
7989;SDS011;4040;42.848;23.034;2022-07-01T14:54:05;5.75;;;4.18;;
7989;SDS011;4040;42.848;23.034;2022-07-01T14:59:55;5.05;;;4.57;;
7989;SDS011;4040;42.848;23.034;2022-07-01T15:05:45;4.95;;;4.35;;
7989;SDS011;4040;42.848;23.034;2022-07-01T15:11:34;5.93;;;4.50;;
7989;SDS011;4040;42.848;23.034;2022-07-01T15:17:24;7.35;;;4.13;;
7989;SDS011;4040;42.848;23.034;2022-07-01T15:23:13;4.45;;;4.00;;
7989;SDS011;4040;42.848;23.034;2022-07-01T15:29:02;6.07;;;4.35;;
7989;SDS011;4040;42.848;23.034;2022-07-01T15:34:53;4.40;;;4.00;;
7989;SDS011;4040;42.848;23.034;2022-07-01T15:45:03;5.25;;;4.30;;
7989;SDS011;4040;42.848;23.034;2022-07-01T15:50:55;6.35;;;4.18;;
7989;SDS011;4040;42.848;23.034;2022-07-01T15:56:43;4.40;;;3.75;;
7989;SDS011;4040;42.848;23.034;2022-07-01T16:02:32;4.53;;;3.80;;
7989;SDS011;4040;42.848;23.034;2022-07-01T16:08:26;9.15;;;4.20;;
7989;SDS011;4040;42.848;23.034;2022-07-01T16:14:20;7.13;;;4.32;;
7989;SDS011;4040;42.848;23.034;2022-07-01T16:20:12;5.60;;;4.10;;
7989;SDS011;4040;42.848;23.034;2022-07-01T16:26:04;5.43;;;4.35;;
7989;SDS011;4040;42.848;23.034;2022-07-01T16:31:54;6.65;;;5.32;;
7989;SDS011;4040;42.848;23.034;2022-07-01T16:37:44;7.82;;;4.60;;
7989;SDS011;4040;42.848;23.034;2022-07-01T16:48:00;5.88;;;5.00;;
7989;SDS011;4040;42.848;23.034;2022-07-01T16:53:50;8.82;;;5.00;;
7989;SDS011;4040;42.848;23.034;2022-07-01T16:59:39;10.45;;;5.10;;
7989;SDS011;4040;42.848;23.034;2022-07-01T17:05:29;7.20;;;5.57;;
7989;SDS011;4040;42.848;23.034;2022-07-01T17:11:19;5.07;;;4.50;;
7989;SDS011;4040;42.848;23.034;2022-07-01T17:17:08;6.22;;;4.80;;
7989;SDS011;4040;42.848;23.034;2022-07-01T17:23:01;9.50;;;5.10;;
7989;SDS011;4040;42.848;23.034;2022-07-01T17:28:54;4.82;;;4.30;;
7989;SDS011;4040;42.848;23.034;2022-07-01T17:34:45;5.57;;;4.90;;
7989;SDS011;4040;42.848;23.034;2022-07-01T17:40:37;8.13;;;4.95;;
7989;SDS011;4040;42.848;23.034;2022-07-01T17:50:53;12.57;;;5.70;;
7989;SDS011;4040;42.848;23.034;2022-07-01T17:56:44;10.80;;;6.00;;
7989;SDS011;4040;42.848;23.034;2022-07-01T18:02:34;8.50;;;5.82;;
7989;SDS011;4040;42.848;23.034;2022-07-01T18:08:27;7.90;;;5.40;;
7989;SDS011;4040;42.848;23.034;2022-07-01T18:14:21;6.13;;;5.00;;
7989;SDS011;4040;42.848;23.034;2022-07-01T18:20:21;7.07;;;4.60;;
7989;SDS011;4040;42.848;23.034;2022-07-01T18:26:21;11.73;;;5.60;;
7989;SDS011;4040;42.848;23.034;2022-07-01T18:32:15;7.43;;;5.82;;
7989;SDS011;4040;42.848;23.034;2022-07-01T18:38:04;14.90;;;5.95;;
7989;SDS011;4040;42.848;23.034;2022-07-01T18:43:54;11.30;;;7.25;;
7989;SDS011;4040;42.848;23.034;2022-07-01T18:46:22;7.20;;;6.45;;
7989;SDS011;4040;42.848;23.034;2022-07-01T18:52:12;24.77;;;7.53;;
7989;SDS011;4040;42.848;23.034;2022-07-01T18:58:01;8.25;;;6.07;;
7989;SDS011;4040;42.848;23.034;2022-07-01T19:03:50;8.80;;;6.68;;
7989;SDS011;4040;42.848;23.034;2022-07-01T19:09:41;9.05;;;6.53;;
7989;SDS011;4040;42.848;23.034;2022-07-01T19:15:29;11.85;;;7.18;;
7989;SDS011;4040;42.848;23.034;2022-07-01T19:21:18;13.88;;;8.00;;
7989;SDS011;4040;42.848;23.034;2022-07-01T19:27:09;13.70;;;8.07;;
7989;SDS011;4040;42.848;23.034;2022-07-01T19:32:58;10.43;;;7.57;;
7989;SDS011;4040;42.848;23.034;2022-07-01T19:38:47;7.88;;;7.03;;
7989;SDS011;4040;42.848;23.034;2022-07-01T19:44:37;10.93;;;7.32;;
7989;SDS011;4040;42.848;23.034;2022-07-01T19:50:26;13.18;;;8.07;;
7989;SDS011;4040;42.848;23.034;2022-07-01T19:56:15;10.00;;;8.77;;
7989;SDS011;4040;42.848;23.034;2022-07-01T20:02:05;10.10;;;7.70;;
7989;SDS011;4040;42.848;23.034;2022-07-01T20:07:54;11.20;;;8.23;;
7989;SDS011;4040;42.848;23.034;2022-07-01T20:13:43;10.30;;;8.10;;
7989;SDS011;4040;42.848;23.034;2022-07-01T20:19:33;8.63;;;7.45;;
7989;SDS011;4040;42.848;23.034;2022-07-01T20:25:22;10.57;;;7.82;;
7989;SDS011;4040;42.848;23.034;2022-07-01T20:31:11;8.30;;;7.22;;
7989;SDS011;4040;42.848;23.034;2022-07-01T20:37:01;10.65;;;7.53;;
7989;SDS011;4040;42.848;23.034;2022-07-01T20:42:50;10.93;;;7.10;;
7989;SDS011;4040;42.848;23.034;2022-07-01T20:52:52;9.27;;;7.38;;
7989;SDS011;4040;42.848;23.034;2022-07-01T20:58:41;8.32;;;7.50;;
7989;SDS011;4040;42.848;23.034;2022-07-01T21:04:30;9.27;;;7.35;;
7989;SDS011;4040;42.848;23.034;2022-07-01T21:10:21;9.73;;;7.10;;
7989;SDS011;4040;42.848;23.034;2022-07-01T21:16:10;8.50;;;7.60;;
7989;SDS011;4040;42.848;23.034;2022-07-01T21:21:58;7.30;;;6.60;;
7989;SDS011;4040;42.848;23.034;2022-07-01T21:27:49;7.47;;;6.65;;
7989;SDS011;4040;42.848;23.034;2022-07-01T21:33:38;8.77;;;6.95;;
7989;SDS011;4040;42.848;23.034;2022-07-01T21:39:27;10.35;;;7.18;;
7989;SDS011;4040;42.848;23.034;2022-07-01T21:45:17;9.98;;;6.95;;
7989;SDS011;4040;42.848;23.034;2022-07-01T21:55:28;11.43;;;7.30;;
7989;SDS011;4040;42.848;23.034;2022-07-01T22:08:28;8.38;;;7.15;;
7989;SDS011;4040;42.848;23.034;2022-07-01T22:14:17;8.32;;;7.20;;
7989;SDS011;4040;42.848;23.034;2022-07-01T22:20:08;7.75;;;6.95;;
7989;SDS011;4040;42.848;23.034;2022-07-01T22:26:01;8.35;;;6.78;;
7989;SDS011;4040;42.848;23.034;2022-07-01T22:31:50;8.63;;;7.65;;
7989;SDS011;4040;42.848;23.034;2022-07-01T22:37:39;8.30;;;7.50;;
7989;SDS011;4040;42.848;23.034;2022-07-01T22:43:30;8.35;;;7.53;;
7989;SDS011;4040;42.848;23.034;2022-07-01T22:49:24;8.63;;;7.53;;
7989;SDS011;4040;42.848;23.034;2022-07-01T22:55:22;8.48;;;7.68;;
7989;SDS011;4040;42.848;23.034;2022-07-01T23:01:21;7.68;;;6.97;;
7989;SDS011;4040;42.848;23.034;2022-07-01T23:07:43;8.73;;;7.72;;
7989;SDS011;4040;42.848;23.034;2022-07-01T23:13:38;8.15;;;7.35;;
7989;SDS011;4040;42.848;23.034;2022-07-01T23:19:52;10.52;;;7.35;;
7989;SDS011;4040;42.848;23.034;2022-07-01T23:25:44;8.02;;;7.18;;
7989;SDS011;4040;42.848;23.034;2022-07-01T23:31:35;8.77;;;7.88;;
7989;SDS011;4040;42.848;23.034;2022-07-01T23:37:26;8.85;;;7.95;;
7989;SDS011;4040;42.848;23.034;2022-07-01T23:43:16;8.38;;;7.57;;
7989;SDS011;4040;42.848;23.034;2022-07-01T23:49:04;8.38;;;7.47;;
7989;SDS011;4040;42.848;23.034;2022-07-01T23:54:56;8.80;;;7.90;;
